Dumont, Iowa
Current Conditions -  °F | °C
As of 8:15 PM on Saturday 22 Nov 2014 (Local Time) from KIFA Reporting Station
Haze Haze  
Wind Chill: 50°   Ceiling: 200
Heat Index: 50°   Visibility: 1.5mi
Dew Point: 49°   Wind: 15mph
Humidity: 96%   Direction: 170°S
Pressure: 29.65"   Gusts: NA
Location:  42.75°N, 92.98°W
Report Text: KIFA 230215Z AUTO 17013KT 1 1/2SM BR OVC002 10/10 A2965 RMK AO2 T01020096
Loading
Personal Weather Stations






























Interactive Weather Map New forecast layout! Learn more

10-Day Weather Forecast

Advertisements
Track Severe Weather on mobile